Decoded Metar for VGHS ( in ) (IATA:) | Meteo·Mobile Aviation Weather
aviador You're here:

VGHS Decoded Metar

in
Report Time2018-11-20 16:30:00
UTC Time2018-11-20 16:32:28
Flight Rules ifr IFR
Wind150° at 03 kt
W.Decomp.*RWY 14: 3.0 kt HW 0.5 kt RCW
W.Rank150° ranks 5
Current wind is below 150° avg. (6.2)
Visibility3500 m
Phenomena:Haze
Clouds:N/A
Expected CloudBase > 2,400 ft AGL from Temp-Dew spread
CeilingNone
Temp23°C
Dew Point17°C (69% RH)
QNH1016 hPa
Raw Report
METAR VGHS 201630Z 15003KT 3500 HZ NSC 23/17 Q1016 NOSIG=

Extra information for VGHS:More info

Social comments